UAL125 EHRD-LFPG
Flight info
| Callsign | UAL125 |
|---|---|
| Flight time | 0h 49m |
| Altitude | 34000 |
| Route | WOODY N872 NIK UY131 MOPIL |
| Aircraft | B789/H-SDE1E2E3FGHIJ2J3J4J5M1RWXY/LB1D1 |
Departure
| Time | 2026-05-08 12:45 |
|---|---|
| Airport | Rotterdam The Hague Airport (EHRD) |
Arrival
| Time | 2026-05-08 13:35 |
|---|---|
| Airport | Charles de Gaulle International Airport (LFPG) |
| Time | Latitude | Longitude | Altitude | Speed | Heading |
|---|---|---|---|---|---|
| 2026-05-08 12:22 | 51.95102 | 4.43496 | 7 ft | 0 kts | 327° |
| 2026-05-08 12:40 | 51.95097 | 4.43503 | 6 ft | 2 kts | 337° |
| 2026-05-08 12:40 | 51.95084 | 4.43511 | 8 ft | 2 kts | 3° |
| 2026-05-08 12:41 | 51.95070 | 4.43510 | 8 ft | 0 kts | 52° |
| 2026-05-08 12:41 | 51.95075 | 4.43522 | 9 ft | 4 kts | 55° |
| 2026-05-08 12:41 | 51.95094 | 4.43561 | 6 ft | 4 kts | 47° |
| 2026-05-08 12:41 | 51.95112 | 4.43567 | 6 ft | 3 kts | 2° |
| 2026-05-08 12:42 | 51.95173 | 4.43519 | 6 ft | 17 kts | 328° |
| 2026-05-08 12:42 | 51.95235 | 4.43435 | 6 ft | 7 kts | 295° |
| 2026-05-08 12:42 | 51.95226 | 4.43351 | 6 ft | 11 kts | 245° |
| 2026-05-08 12:42 | 51.95174 | 4.43215 | 6 ft | 15 kts | 238° |
| 2026-05-08 12:43 | 51.95120 | 4.43065 | 6 ft | 16 kts | 242° |
| 2026-05-08 12:43 | 51.95131 | 4.42932 | 6 ft | 10 kts | 313° |
| 2026-05-08 12:43 | 51.95185 | 4.42871 | 7 ft | 9 kts | 327° |
| 2026-05-08 12:43 | 51.95227 | 4.42878 | 8 ft | 5 kts | 31° |
| 2026-05-08 12:44 | 51.95249 | 4.42924 | 7 ft | 0 kts | 59° |
| 2026-05-08 12:44 | 51.95254 | 4.42937 | 7 ft | 3 kts | 59° |
| 2026-05-08 12:44 | 51.95267 | 4.42973 | 7 ft | 5 kts | 59° |
| 2026-05-08 12:44 | 51.95347 | 4.43166 | 7 ft | 56 kts | 56° |
| 2026-05-08 12:45 | 51.95723 | 4.44110 | 8 ft | 139 kts | 57° |
| 2026-05-08 12:45 | 51.96356 | 4.45613 | 474 ft | 173 kts | 51° |
| 2026-05-08 12:45 | 51.97080 | 4.47213 | 1681 ft | 179 kts | 52° |
| 2026-05-08 12:45 | 51.97825 | 4.48845 | 2733 ft | 187 kts | 54° |
| 2026-05-08 12:46 | 51.98618 | 4.50727 | 3407 ft | 209 kts | 57° |
| 2026-05-08 12:46 | 51.99405 | 4.52687 | 4382 ft | 223 kts | 59° |
| 2026-05-08 12:46 | 51.99923 | 4.55278 | 4363 ft | 249 kts | 77° |
| 2026-05-08 12:46 | 52.00234 | 4.58049 | 4603 ft | 250 kts | 85° |
| 2026-05-08 12:47 | 51.99948 | 4.60817 | 4924 ft | 254 kts | 114° |
| 2026-05-08 12:47 | 51.98849 | 4.63054 | 4985 ft | 257 kts | 144° |
| 2026-05-08 12:47 | 51.97286 | 4.64427 | 4988 ft | 256 kts | 154° |
| 2026-05-08 12:47 | 51.95674 | 4.65643 | 5004 ft | 256 kts | 154° |
| 2026-05-08 12:48 | 51.94011 | 4.66639 | 5018 ft | 254 kts | 175° |
| 2026-05-08 12:48 | 51.92352 | 4.66303 | 5498 ft | 256 kts | 200° |
| 2026-05-08 12:48 | 51.90781 | 4.64688 | 6092 ft | 279 kts | 215° |
| 2026-05-08 12:48 | 51.88983 | 4.63562 | 6646 ft | 282 kts | 192° |
| 2026-05-08 12:49 | 51.87023 | 4.62998 | 7229 ft | 290 kts | 191° |
| 2026-05-08 12:49 | 51.85003 | 4.62173 | 7879 ft | 311 kts | 198° |
| 2026-05-08 12:49 | 51.82904 | 4.60903 | 8608 ft | 327 kts | 202° |
| 2026-05-08 12:49 | 51.80797 | 4.59562 | 9378 ft | 331 kts | 201° |
| 2026-05-08 12:50 | 51.78609 | 4.58304 | 10140 ft | 338 kts | 199° |
| 2026-05-08 12:50 | 51.76374 | 4.57068 | 10837 ft | 341 kts | 199° |
| 2026-05-08 12:50 | 51.74119 | 4.55780 | 11548 ft | 345 kts | 200° |
| 2026-05-08 12:50 | 51.71849 | 4.54459 | 12262 ft | 348 kts | 200° |
| 2026-05-08 12:51 | 51.69547 | 4.53134 | 12992 ft | 353 kts | 200° |
| 2026-05-08 12:51 | 51.64862 | 4.50462 | 14448 ft | 360 kts | 200° |
| 2026-05-08 12:51 | 51.62491 | 4.49105 | 15122 ft | 363 kts | 200° |
| 2026-05-08 12:52 | 51.60095 | 4.47736 | 15832 ft | 366 kts | 200° |
| 2026-05-08 12:52 | 51.55287 | 4.44998 | 17314 ft | 371 kts | 200° |
| 2026-05-08 12:52 | 51.52839 | 4.43606 | 18157 ft | 374 kts | 200° |
| 2026-05-08 12:53 | 51.50376 | 4.42206 | 18913 ft | 378 kts | 200° |
| 2026-05-08 12:53 | 51.47886 | 4.40792 | 19666 ft | 381 kts | 200° |
| 2026-05-08 12:53 | 51.45373 | 4.39368 | 20432 ft | 385 kts | 200° |
| 2026-05-08 12:53 | 51.42836 | 4.37933 | 21227 ft | 388 kts | 200° |
| 2026-05-08 12:54 | 51.40298 | 4.36446 | 22049 ft | 390 kts | 205° |
| 2026-05-08 12:54 | 51.37851 | 4.34541 | 22773 ft | 394 kts | 206° |
| 2026-05-08 12:54 | 51.35331 | 4.32646 | 22996 ft | 405 kts | 205° |
| 2026-05-08 12:54 | 51.32783 | 4.30745 | 22994 ft | 402 kts | 206° |
| 2026-05-08 12:55 | 51.30259 | 4.28828 | 22994 ft | 402 kts | 206° |
| 2026-05-08 12:55 | 51.27744 | 4.26900 | 22991 ft | 402 kts | 206° |
| 2026-05-08 12:55 | 51.25213 | 4.24976 | 22991 ft | 402 kts | 206° |
| 2026-05-08 12:55 | 51.22686 | 4.23068 | 22994 ft | 401 kts | 206° |
| 2026-05-08 12:56 | 51.20165 | 4.21162 | 22995 ft | 401 kts | 206° |
| 2026-05-08 12:56 | 51.17618 | 4.19341 | 22996 ft | 401 kts | 200° |
| 2026-05-08 12:56 | 51.14897 | 4.18333 | 23016 ft | 403 kts | 187° |
| 2026-05-08 12:56 | 51.12090 | 4.18052 | 23008 ft | 404 kts | 184° |
| 2026-05-08 12:57 | 51.09284 | 4.17831 | 23009 ft | 404 kts | 184° |
| 2026-05-08 12:57 | 51.06508 | 4.17631 | 23014 ft | 404 kts | 184° |
| 2026-05-08 12:57 | 51.03665 | 4.17419 | 23012 ft | 404 kts | 184° |
| 2026-05-08 12:57 | 51.00892 | 4.17204 | 23008 ft | 404 kts | 184° |
| 2026-05-08 12:58 | 50.98086 | 4.16988 | 23008 ft | 404 kts | 184° |
| 2026-05-08 12:58 | 50.95275 | 4.16776 | 23002 ft | 404 kts | 184° |
| 2026-05-08 12:58 | 50.92460 | 4.16564 | 23002 ft | 404 kts | 184° |
| 2026-05-08 12:58 | 50.89654 | 4.16351 | 23008 ft | 404 kts | 184° |
| 2026-05-08 12:59 | 50.86842 | 4.16138 | 22997 ft | 404 kts | 184° |
| 2026-05-08 12:59 | 50.84026 | 4.15926 | 22996 ft | 404 kts | 184° |
| 2026-05-08 12:59 | 50.81215 | 4.15714 | 22995 ft | 404 kts | 184° |
| 2026-05-08 12:59 | 50.78409 | 4.15503 | 22998 ft | 404 kts | 184° |
| 2026-05-08 13:00 | 50.75603 | 4.15292 | 22990 ft | 403 kts | 184° |
| 2026-05-08 13:00 | 50.72800 | 4.15081 | 22989 ft | 403 kts | 184° |
| 2026-05-08 13:00 | 50.69995 | 4.14871 | 22993 ft | 403 kts | 184° |
| 2026-05-08 13:00 | 50.67199 | 4.14661 | 22988 ft | 403 kts | 184° |
| 2026-05-08 13:01 | 50.64390 | 4.14450 | 22988 ft | 403 kts | 184° |
| 2026-05-08 13:01 | 50.61586 | 4.14241 | 22989 ft | 403 kts | 184° |
| 2026-05-08 13:01 | 50.58781 | 4.14032 | 22991 ft | 404 kts | 184° |
| 2026-05-08 13:01 | 50.55974 | 4.13823 | 22979 ft | 404 kts | 184° |
| 2026-05-08 13:02 | 50.53167 | 4.13613 | 22983 ft | 404 kts | 184° |
| 2026-05-08 13:02 | 50.50352 | 4.13404 | 22983 ft | 404 kts | 184° |
| 2026-05-08 13:02 | 50.47548 | 4.13195 | 22991 ft | 404 kts | 184° |
| 2026-05-08 13:02 | 50.44736 | 4.12986 | 22992 ft | 404 kts | 184° |
| 2026-05-08 13:03 | 50.41930 | 4.12778 | 22988 ft | 404 kts | 184° |
| 2026-05-08 13:03 | 50.39144 | 4.12572 | 22990 ft | 404 kts | 184° |
| 2026-05-08 13:03 | 50.36333 | 4.12364 | 22988 ft | 404 kts | 184° |
| 2026-05-08 13:03 | 50.33520 | 4.12156 | 22983 ft | 404 kts | 184° |
| 2026-05-08 13:04 | 50.30708 | 4.11949 | 22992 ft | 404 kts | 184° |
| 2026-05-08 13:04 | 50.27900 | 4.11742 | 22986 ft | 404 kts | 184° |
| 2026-05-08 13:04 | 50.25085 | 4.11535 | 22985 ft | 404 kts | 184° |
| 2026-05-08 13:04 | 50.22275 | 4.11328 | 22991 ft | 404 kts | 184° |
| 2026-05-08 13:05 | 50.19467 | 4.11122 | 22978 ft | 404 kts | 184° |
| 2026-05-08 13:05 | 50.16687 | 4.10918 | 22980 ft | 404 kts | 184° |
| 2026-05-08 13:05 | 50.13872 | 4.10711 | 22978 ft | 404 kts | 184° |
| 2026-05-08 13:05 | 50.11060 | 4.10503 | 22980 ft | 405 kts | 184° |
| 2026-05-08 13:06 | 50.08254 | 4.10292 | 22987 ft | 405 kts | 184° |
| 2026-05-08 13:06 | 50.05442 | 4.10083 | 22981 ft | 405 kts | 184° |
| 2026-05-08 13:06 | 50.02625 | 4.09875 | 22987 ft | 405 kts | 184° |
| 2026-05-08 13:06 | 49.99810 | 4.09667 | 22981 ft | 405 kts | 184° |
| 2026-05-08 13:07 | 49.97011 | 4.09461 | 22974 ft | 399 kts | 184° |
| 2026-05-08 13:07 | 49.94262 | 4.09258 | 22970 ft | 390 kts | 184° |
| 2026-05-08 13:07 | 49.91600 | 4.09063 | 22974 ft | 375 kts | 184° |
| 2026-05-08 13:07 | 49.89017 | 4.08873 | 22972 ft | 369 kts | 184° |
| 2026-05-08 13:08 | 49.86453 | 4.08682 | 22959 ft | 367 kts | 184° |
| 2026-05-08 13:08 | 49.83904 | 4.08494 | 22966 ft | 366 kts | 184° |
| 2026-05-08 13:08 | 49.81365 | 4.08308 | 22967 ft | 365 kts | 184° |
| 2026-05-08 13:08 | 49.78826 | 4.08122 | 22973 ft | 365 kts | 184° |
| 2026-05-08 13:09 | 49.76317 | 4.07938 | 22875 ft | 367 kts | 184° |
| 2026-05-08 13:09 | 49.73772 | 4.07751 | 22431 ft | 365 kts | 184° |
| 2026-05-08 13:09 | 49.71240 | 4.07567 | 21969 ft | 362 kts | 184° |
| 2026-05-08 13:09 | 49.68724 | 4.07383 | 21516 ft | 360 kts | 184° |
| 2026-05-08 13:10 | 49.66233 | 4.07202 | 21070 ft | 357 kts | 184° |
| 2026-05-08 13:10 | 49.63760 | 4.07009 | 20631 ft | 354 kts | 187° |
| 2026-05-08 13:10 | 49.61388 | 4.06161 | 20218 ft | 348 kts | 203° |
| 2026-05-08 13:10 | 49.59292 | 4.04353 | 19832 ft | 344 kts | 219° |
| 2026-05-08 13:11 | 49.57614 | 4.01749 | 19436 ft | 342 kts | 234° |
| 2026-05-08 13:11 | 49.56302 | 3.98720 | 19040 ft | 339 kts | 236° |
| 2026-05-08 13:11 | 49.55016 | 3.95678 | 18637 ft | 337 kts | 237° |
| 2026-05-08 13:11 | 49.53749 | 3.92650 | 18214 ft | 335 kts | 237° |
| 2026-05-08 13:12 | 49.52500 | 3.89679 | 17763 ft | 333 kts | 237° |
| 2026-05-08 13:12 | 49.51238 | 3.86699 | 17313 ft | 332 kts | 237° |
| 2026-05-08 13:12 | 49.49983 | 3.83733 | 16866 ft | 330 kts | 237° |
| 2026-05-08 13:12 | 49.48734 | 3.80780 | 16426 ft | 328 kts | 236° |
| 2026-05-08 13:13 | 49.47488 | 3.77837 | 15996 ft | 327 kts | 236° |
| 2026-05-08 13:13 | 49.46248 | 3.74913 | 15556 ft | 325 kts | 236° |
| 2026-05-08 13:13 | 49.45013 | 3.71998 | 15132 ft | 323 kts | 236° |
| 2026-05-08 13:13 | 49.43795 | 3.69117 | 14708 ft | 321 kts | 236° |
| 2026-05-08 13:14 | 49.42579 | 3.66235 | 14297 ft | 320 kts | 236° |
| 2026-05-08 13:14 | 49.41388 | 3.63406 | 13902 ft | 319 kts | 236° |
| 2026-05-08 13:14 | 49.40188 | 3.60552 | 13463 ft | 317 kts | 236° |
| 2026-05-08 13:14 | 49.39027 | 3.57675 | 13053 ft | 314 kts | 239° |
| 2026-05-08 13:15 | 49.37918 | 3.54814 | 12998 ft | 313 kts | 246° |
| 2026-05-08 13:15 | 49.37600 | 3.51507 | 13010 ft | 320 kts | 276° |
| 2026-05-08 13:15 | 49.38344 | 3.48369 | 12945 ft | 318 kts | 303° |
| 2026-05-08 13:15 | 49.39846 | 3.45855 | 12947 ft | 316 kts | 311° |
| 2026-05-08 13:16 | 49.40865 | 3.42946 | 12954 ft | 310 kts | 279° |
| 2026-05-08 13:16 | 49.40777 | 3.39708 | 12961 ft | 306 kts | 250° |
| 2026-05-08 13:16 | 49.39680 | 3.36940 | 12943 ft | 304 kts | 229° |
| 2026-05-08 13:16 | 49.38258 | 3.34552 | 12935 ft | 304 kts | 227° |
| 2026-05-08 13:17 | 49.36877 | 3.32105 | 12933 ft | 304 kts | 231° |
| 2026-05-08 13:17 | 49.35665 | 3.29489 | 12935 ft | 304 kts | 238° |
| 2026-05-08 13:17 | 49.34731 | 3.26580 | 12944 ft | 305 kts | 248° |
| 2026-05-08 13:17 | 49.34072 | 3.23491 | 12934 ft | 305 kts | 252° |
| 2026-05-08 13:18 | 49.33434 | 3.20372 | 12939 ft | 305 kts | 250° |
| 2026-05-08 13:18 | 49.32699 | 3.17324 | 12948 ft | 305 kts | 248° |
| 2026-05-08 13:18 | 49.31935 | 3.14285 | 12937 ft | 305 kts | 248° |
| 2026-05-08 13:18 | 49.31198 | 3.11233 | 12934 ft | 305 kts | 249° |
| 2026-05-08 13:19 | 49.30470 | 3.08176 | 12930 ft | 301 kts | 249° |
| 2026-05-08 13:19 | 49.29771 | 3.05256 | 12914 ft | 287 kts | 249° |
| 2026-05-08 13:19 | 49.29084 | 3.02393 | 12910 ft | 286 kts | 249° |
| 2026-05-08 13:19 | 49.28399 | 2.99537 | 12916 ft | 284 kts | 249° |
| 2026-05-08 13:20 | 49.27711 | 2.96677 | 12912 ft | 290 kts | 249° |
| 2026-05-08 13:20 | 49.27063 | 2.93735 | 12744 ft | 296 kts | 253° |
| 2026-05-08 13:20 | 49.26562 | 2.90665 | 12198 ft | 298 kts | 256° |
| 2026-05-08 13:20 | 49.26110 | 2.87550 | 11597 ft | 300 kts | 257° |
| 2026-05-08 13:21 | 49.25669 | 2.84421 | 11070 ft | 301 kts | 257° |
| 2026-05-08 13:21 | 49.25239 | 2.81342 | 10930 ft | 288 kts | 257° |
| 2026-05-08 13:21 | 49.24964 | 2.79363 | 10925 ft | 287 kts | 257° |
| 2026-05-08 13:21 | 49.24548 | 2.76374 | 10924 ft | 286 kts | 257° |
| 2026-05-08 13:22 | 49.24133 | 2.73397 | 10926 ft | 287 kts | 257° |
| 2026-05-08 13:22 | 49.23716 | 2.70412 | 10920 ft | 286 kts | 257° |
| 2026-05-08 13:22 | 49.23300 | 2.67435 | 10920 ft | 285 kts | 257° |
| 2026-05-08 13:22 | 49.22885 | 2.64474 | 10920 ft | 285 kts | 257° |
| 2026-05-08 13:23 | 49.22456 | 2.61502 | 10920 ft | 286 kts | 257° |
| 2026-05-08 13:23 | 49.22029 | 2.58555 | 10925 ft | 288 kts | 257° |
| 2026-05-08 13:23 | 49.21591 | 2.55531 | 10569 ft | 294 kts | 257° |
| 2026-05-08 13:23 | 49.21144 | 2.52471 | 10038 ft | 295 kts | 257° |
| 2026-05-08 13:24 | 49.20692 | 2.49396 | 9471 ft | 295 kts | 257° |
| 2026-05-08 13:24 | 49.20236 | 2.46335 | 8895 ft | 295 kts | 257° |
| 2026-05-08 13:24 | 49.19778 | 2.43278 | 8330 ft | 296 kts | 257° |
| 2026-05-08 13:24 | 49.19315 | 2.40219 | 7771 ft | 296 kts | 257° |
| 2026-05-08 13:25 | 49.18857 | 2.37216 | 7212 ft | 284 kts | 256° |
| 2026-05-08 13:25 | 49.18124 | 2.34479 | 6694 ft | 276 kts | 239° |
| 2026-05-08 13:25 | 49.16931 | 2.32231 | 6079 ft | 268 kts | 225° |
| 2026-05-08 13:25 | 49.15610 | 2.30289 | 5455 ft | 259 kts | 222° |
| 2026-05-08 13:26 | 49.14299 | 2.28449 | 4861 ft | 254 kts | 222° |
| 2026-05-08 13:26 | 49.13011 | 2.26651 | 4255 ft | 250 kts | 221° |
| 2026-05-08 13:26 | 49.11769 | 2.24920 | 3932 ft | 237 kts | 222° |
| 2026-05-08 13:26 | 49.10545 | 2.23209 | 3930 ft | 240 kts | 221° |
| 2026-05-08 13:27 | 49.09401 | 2.21355 | 3931 ft | 239 kts | 230° |
| 2026-05-08 13:27 | 49.08365 | 2.19351 | 3932 ft | 242 kts | 231° |
| 2026-05-08 13:27 | 49.07337 | 2.17313 | 3928 ft | 240 kts | 232° |
| 2026-05-08 13:27 | 49.06317 | 2.15292 | 3929 ft | 241 kts | 232° |
| 2026-05-08 13:28 | 49.05293 | 2.13253 | 3922 ft | 243 kts | 232° |
| 2026-05-08 13:28 | 49.04218 | 2.11295 | 3887 ft | 241 kts | 219° |
| 2026-05-08 13:28 | 49.02758 | 2.10500 | 3892 ft | 213 kts | 176° |
| 2026-05-08 13:28 | 49.01512 | 2.11298 | 3874 ft | 187 kts | 131° |
| 2026-05-08 13:29 | 49.01104 | 2.13061 | 3889 ft | 183 kts | 88° |
| 2026-05-08 13:29 | 49.01235 | 2.14984 | 3918 ft | 183 kts | 83° |
| 2026-05-08 13:29 | 49.01363 | 2.16906 | 3921 ft | 184 kts | 85° |
| 2026-05-08 13:29 | 49.01423 | 2.18853 | 3917 ft | 183 kts | 88° |
| 2026-05-08 13:30 | 49.01455 | 2.20788 | 3930 ft | 184 kts | 88° |
| 2026-05-08 13:30 | 49.01373 | 2.22735 | 3880 ft | 185 kts | 104° |
| 2026-05-08 13:30 | 49.01037 | 2.24609 | 3867 ft | 185 kts | 90° |
| 2026-05-08 13:30 | 49.01150 | 2.26557 | 3716 ft | 185 kts | 87° |
| 2026-05-08 13:31 | 49.01212 | 2.28497 | 3495 ft | 181 kts | 85° |
| 2026-05-08 13:31 | 49.01311 | 2.30411 | 3250 ft | 180 kts | 85° |
| 2026-05-08 13:31 | 49.01409 | 2.32271 | 3022 ft | 178 kts | 85° |
| 2026-05-08 13:31 | 49.01505 | 2.34116 | 2780 ft | 173 kts | 85° |
| 2026-05-08 13:32 | 49.01604 | 2.35971 | 2546 ft | 176 kts | 85° |
| 2026-05-08 13:32 | 49.01698 | 2.37782 | 2303 ft | 165 kts | 84° |
| 2026-05-08 13:32 | 49.01785 | 2.39450 | 2083 ft | 155 kts | 84° |
| 2026-05-08 13:32 | 49.01872 | 2.41064 | 1882 ft | 151 kts | 84° |
| 2026-05-08 13:33 | 49.01956 | 2.42659 | 1685 ft | 151 kts | 85° |
| 2026-05-08 13:33 | 49.02043 | 2.44297 | 1469 ft | 155 kts | 85° |
| 2026-05-08 13:33 | 49.02129 | 2.45879 | 1276 ft | 150 kts | 85° |
| 2026-05-08 13:33 | 49.02212 | 2.47492 | 1074 ft | 156 kts | 85° |
| 2026-05-08 13:34 | 49.02300 | 2.49167 | 853 ft | 159 kts | 84° |
| 2026-05-08 13:34 | 49.02385 | 2.50819 | 619 ft | 153 kts | 84° |
| 2026-05-08 13:34 | 49.02462 | 2.52420 | 414 ft | 149 kts | 82° |
| 2026-05-08 13:34 | 49.02540 | 2.53816 | 368 ft | 105 kts | 85° |
| 2026-05-08 13:35 | 49.02560 | 2.54482 | 360 ft | 36 kts | 98° |
| 2026-05-08 13:35 | 49.02501 | 2.54814 | 362 ft | 27 kts | 104° |
| 2026-05-08 13:35 | 49.02482 | 2.54925 | 365 ft | 0 kts | 104° |
| 2026-05-08 13:35 | 49.02476 | 2.54955 | 365 ft | 8 kts | 110° |
| 2026-05-08 13:36 | 49.02454 | 2.55037 | 365 ft | 12 kts | 108° |
| 2026-05-08 13:36 | 49.02450 | 2.55215 | 366 ft | 21 kts | 88° |
| 2026-05-08 13:36 | 49.02456 | 2.55417 | 363 ft | 17 kts | 86° |
| 2026-05-08 13:36 | 49.02448 | 2.55575 | 364 ft | 9 kts | 120° |
| 2026-05-08 13:37 | 49.02404 | 2.55608 | 366 ft | 9 kts | 174° |
| 2026-05-08 13:37 | 49.02300 | 2.55618 | 365 ft | 17 kts | 176° |
| 2026-05-08 13:37 | 49.02186 | 2.55635 | 362 ft | 15 kts | 174° |
| 2026-05-08 13:37 | 49.02077 | 2.55652 | 364 ft | 16 kts | 174° |
| 2026-05-08 13:38 | 49.01963 | 2.55671 | 366 ft | 16 kts | 173° |
| 2026-05-08 13:38 | 49.01896 | 2.55635 | 366 ft | 5 kts | 244° |
| 2026-05-08 13:38 | 49.01889 | 2.55576 | 362 ft | 9 kts | 262° |
| 2026-05-08 13:38 | 49.01882 | 2.55450 | 361 ft | 13 kts | 266° |
| 2026-05-08 13:39 | 49.01875 | 2.55305 | 366 ft | 14 kts | 265° |
| 2026-05-08 13:39 | 49.01866 | 2.55146 | 365 ft | 16 kts | 265° |
| 2026-05-08 13:39 | 49.01856 | 2.54975 | 360 ft | 17 kts | 265° |
| 2026-05-08 13:39 | 49.01846 | 2.54793 | 364 ft | 18 kts | 265° |
| 2026-05-08 13:40 | 49.01835 | 2.54601 | 360 ft | 19 kts | 265° |
| 2026-05-08 13:40 | 49.01824 | 2.54399 | 362 ft | 20 kts | 265° |
| 2026-05-08 13:40 | 49.01815 | 2.54198 | 368 ft | 17 kts | 266° |
| 2026-05-08 13:40 | 49.01804 | 2.54062 | 363 ft | 4 kts | 244° |
| 2026-05-08 13:41 | 49.01794 | 2.54023 | 366 ft | 8 kts | 252° |
| 2026-05-08 13:41 | 49.01761 | 2.53873 | 360 ft | 16 kts | 245° |
| 2026-05-08 13:41 | 49.01689 | 2.53818 | 366 ft | 9 kts | 165° |
| 2026-05-08 13:41 | 49.01631 | 2.53841 | 364 ft | 5 kts | 168° |